sensor_id;sensor_type;location;lat;lon;timestamp;P1;durP1;ratioP1;P2;durP2;ratioP2
65471;SDS011;52068;50.710;14.492;2023-06-22T00:01:48;10.93;;;6.13;;
65471;SDS011;52068;50.710;14.492;2023-06-22T00:04:13;9.27;;;5.32;;
65471;SDS011;52068;50.710;14.492;2023-06-22T00:06:39;8.52;;;5.65;;
65471;SDS011;52068;50.710;14.492;2023-06-22T00:09:04;9.57;;;5.63;;
65471;SDS011;52068;50.710;14.492;2023-06-22T00:11:31;7.07;;;4.93;;
65471;SDS011;52068;50.710;14.492;2023-06-22T00:13:58;13.25;;;5.05;;
65471;SDS011;52068;50.710;14.492;2023-06-22T00:16:24;6.47;;;4.88;;
65471;SDS011;52068;50.710;14.492;2023-06-22T00:18:49;9.43;;;4.72;;
65471;SDS011;52068;50.710;14.492;2023-06-22T00:21:14;9.57;;;5.53;;
65471;SDS011;52068;50.710;14.492;2023-06-22T00:23:40;7.22;;;5.18;;
65471;SDS011;52068;50.710;14.492;2023-06-22T00:26:06;8.32;;;5.43;;
65471;SDS011;52068;50.710;14.492;2023-06-22T00:28:32;7.22;;;4.70;;
65471;SDS011;52068;50.710;14.492;2023-06-22T00:30:57;8.52;;;5.03;;
65471;SDS011;52068;50.710;14.492;2023-06-22T00:33:22;5.50;;;5.00;;
65471;SDS011;52068;50.710;14.492;2023-06-22T00:35:48;6.05;;;4.88;;
65471;SDS011;52068;50.710;14.492;2023-06-22T00:38:13;11.80;;;4.72;;
65471;SDS011;52068;50.710;14.492;2023-06-22T00:40:38;6.22;;;4.40;;
65471;SDS011;52068;50.710;14.492;2023-06-22T00:43:04;6.75;;;4.43;;
65471;SDS011;52068;50.710;14.492;2023-06-22T00:45:30;9.43;;;4.63;;
65471;SDS011;52068;50.710;14.492;2023-06-22T00:47:56;12.85;;;4.97;;
65471;SDS011;52068;50.710;14.492;2023-06-22T00:50:23;8.60;;;4.65;;
65471;SDS011;52068;50.710;14.492;2023-06-22T00:52:51;6.20;;;4.53;;
65471;SDS011;52068;50.710;14.492;2023-06-22T00:55:19;8.23;;;4.57;;
65471;SDS011;52068;50.710;14.492;2023-06-22T00:57:46;12.02;;;4.30;;
65471;SDS011;52068;50.710;14.492;2023-06-22T01:00:13;6.60;;;4.18;;
65471;SDS011;52068;50.710;14.492;2023-06-22T01:02:43;5.82;;;4.63;;
65471;SDS011;52068;50.710;14.492;2023-06-22T01:05:12;8.38;;;4.82;;
65471;SDS011;52068;50.710;14.492;2023-06-22T01:07:45;10.00;;;4.25;;
65471;SDS011;52068;50.710;14.492;2023-06-22T01:13:04;5.70;;;4.30;;
65471;SDS011;52068;50.710;14.492;2023-06-22T01:15:38;8.68;;;4.20;;
65471;SDS011;52068;50.710;14.492;2023-06-22T01:18:11;8.55;;;4.75;;
65471;SDS011;52068;50.710;14.492;2023-06-22T01:20:38;8.20;;;4.22;;
65471;SDS011;52068;50.710;14.492;2023-06-22T01:25:58;6.95;;;4.15;;
65471;SDS011;52068;50.710;14.492;2023-06-22T01:28:49;6.82;;;4.63;;
65471;SDS011;52068;50.710;14.492;2023-06-22T01:31:18;5.68;;;4.35;;
65471;SDS011;52068;50.710;14.492;2023-06-22T01:33:48;4.80;;;3.90;;
65471;SDS011;52068;50.710;14.492;2023-06-22T01:36:16;9.95;;;4.25;;
65471;SDS011;52068;50.710;14.492;2023-06-22T01:38:42;5.63;;;4.40;;
65471;SDS011;52068;50.710;14.492;2023-06-22T01:41:09;7.03;;;4.35;;
65471;SDS011;52068;50.710;14.492;2023-06-22T01:43:35;10.20;;;4.03;;
65471;SDS011;52068;50.710;14.492;2023-06-22T01:46:01;5.10;;;4.13;;
65471;SDS011;52068;50.710;14.492;2023-06-22T01:48:27;6.82;;;3.95;;
65471;SDS011;52068;50.710;14.492;2023-06-22T01:50:54;4.95;;;3.75;;
65471;SDS011;52068;50.710;14.492;2023-06-22T01:53:23;5.63;;;4.30;;
65471;SDS011;52068;50.710;14.492;2023-06-22T01:55:49;7.35;;;3.88;;
65471;SDS011;52068;50.710;14.492;2023-06-22T01:58:15;16.42;;;3.90;;
65471;SDS011;52068;50.710;14.492;2023-06-22T02:00:44;6.15;;;3.70;;
65471;SDS011;52068;50.710;14.492;2023-06-22T02:03:22;5.85;;;4.28;;
65471;SDS011;52068;50.710;14.492;2023-06-22T02:06:35;14.90;;;4.25;;
65471;SDS011;52068;50.710;14.492;2023-06-22T02:08:47;6.15;;;4.47;;
65471;SDS011;52068;50.710;14.492;2023-06-22T02:11:16;5.82;;;3.90;;
65471;SDS011;52068;50.710;14.492;2023-06-22T02:13:45;11.88;;;4.20;;
65471;SDS011;52068;50.710;14.492;2023-06-22T02:16:11;6.15;;;4.10;;
65471;SDS011;52068;50.710;14.492;2023-06-22T02:18:38;4.30;;;3.75;;
65471;SDS011;52068;50.710;14.492;2023-06-22T02:21:05;8.38;;;4.38;;
65471;SDS011;52068;50.710;14.492;2023-06-22T02:23:30;6.40;;;3.90;;
65471;SDS011;52068;50.710;14.492;2023-06-22T02:25:58;13.77;;;4.13;;
65471;SDS011;52068;50.710;14.492;2023-06-22T02:28:23;6.03;;;4.15;;
65471;SDS011;52068;50.710;14.492;2023-06-22T02:30:48;7.53;;;3.75;;
65471;SDS011;52068;50.710;14.492;2023-06-22T02:33:14;8.57;;;4.03;;
65471;SDS011;52068;50.710;14.492;2023-06-22T02:35:39;5.63;;;4.20;;
65471;SDS011;52068;50.710;14.492;2023-06-22T02:38:05;6.43;;;4.35;;
65471;SDS011;52068;50.710;14.492;2023-06-22T02:40:30;5.95;;;4.20;;
65471;SDS011;52068;50.710;14.492;2023-06-22T02:42:56;9.55;;;4.20;;
65471;SDS011;52068;50.710;14.492;2023-06-22T02:45:27;7.15;;;3.80;;
65471;SDS011;52068;50.710;14.492;2023-06-22T02:47:53;12.02;;;3.92;;
65471;SDS011;52068;50.710;14.492;2023-06-22T02:50:18;10.55;;;4.18;;
65471;SDS011;52068;50.710;14.492;2023-06-22T02:52:44;5.22;;;3.80;;
65471;SDS011;52068;50.710;14.492;2023-06-22T02:55:09;9.85;;;3.92;;
65471;SDS011;52068;50.710;14.492;2023-06-22T02:57:34;4.30;;;3.60;;
65471;SDS011;52068;50.710;14.492;2023-06-22T03:00:00;6.38;;;4.38;;
65471;SDS011;52068;50.710;14.492;2023-06-22T03:02:31;11.57;;;4.63;;
65471;SDS011;52068;50.710;14.492;2023-06-22T03:04:57;4.72;;;3.70;;
65471;SDS011;52068;50.710;14.492;2023-06-22T03:07:22;5.13;;;4.00;;
65471;SDS011;52068;50.710;14.492;2023-06-22T03:09:47;4.97;;;4.00;;
65471;SDS011;52068;50.710;14.492;2023-06-22T03:12:13;5.75;;;4.35;;
65471;SDS011;52068;50.710;14.492;2023-06-22T03:14:38;5.53;;;4.05;;
65471;SDS011;52068;50.710;14.492;2023-06-22T03:17:04;10.35;;;3.90;;
65471;SDS011;52068;50.710;14.492;2023-06-22T03:19:30;9.63;;;4.28;;
65471;SDS011;52068;50.710;14.492;2023-06-22T03:21:57;6.93;;;3.83;;
65471;SDS011;52068;50.710;14.492;2023-06-22T03:24:23;7.38;;;3.70;;
65471;SDS011;52068;50.710;14.492;2023-06-22T03:26:48;4.90;;;3.95;;
65471;SDS011;52068;50.710;14.492;2023-06-22T03:29:14;9.00;;;3.83;;
65471;SDS011;52068;50.710;14.492;2023-06-22T03:31:39;5.07;;;3.45;;
65471;SDS011;52068;50.710;14.492;2023-06-22T03:34:04;11.27;;;4.40;;
65471;SDS011;52068;50.710;14.492;2023-06-22T03:36:30;6.47;;;3.90;;
65471;SDS011;52068;50.710;14.492;2023-06-22T03:38:55;5.40;;;3.50;;
65471;SDS011;52068;50.710;14.492;2023-06-22T03:41:21;5.85;;;4.43;;
65471;SDS011;52068;50.710;14.492;2023-06-22T03:43:46;7.65;;;4.07;;
65471;SDS011;52068;50.710;14.492;2023-06-22T03:46:12;7.57;;;4.10;;
65471;SDS011;52068;50.710;14.492;2023-06-22T03:48:37;4.18;;;3.78;;
65471;SDS011;52068;50.710;14.492;2023-06-22T03:51:03;5.03;;;4.30;;
65471;SDS011;52068;50.710;14.492;2023-06-22T03:53:29;6.68;;;4.10;;
65471;SDS011;52068;50.710;14.492;2023-06-22T03:55:54;5.75;;;4.43;;
65471;SDS011;52068;50.710;14.492;2023-06-22T03:58:20;5.40;;;4.30;;
65471;SDS011;52068;50.710;14.492;2023-06-22T04:00:47;5.95;;;4.18;;
65471;SDS011;52068;50.710;14.492;2023-06-22T04:03:16;5.63;;;4.15;;
65471;SDS011;52068;50.710;14.492;2023-06-22T04:05:43;12.95;;;4.70;;
65471;SDS011;52068;50.710;14.492;2023-06-22T04:08:09;5.43;;;3.92;;
65471;SDS011;52068;50.710;14.492;2023-06-22T04:10:35;6.85;;;4.00;;
65471;SDS011;52068;50.710;14.492;2023-06-22T04:13:00;9.20;;;4.38;;
65471;SDS011;52068;50.710;14.492;2023-06-22T04:15:25;7.53;;;3.75;;
65471;SDS011;52068;50.710;14.492;2023-06-22T04:17:51;5.57;;;4.00;;
65471;SDS011;52068;50.710;14.492;2023-06-22T04:20:16;4.00;;;3.60;;
65471;SDS011;52068;50.710;14.492;2023-06-22T04:22:42;6.72;;;4.55;;
65471;SDS011;52068;50.710;14.492;2023-06-22T04:25:07;6.80;;;4.25;;
65471;SDS011;52068;50.710;14.492;2023-06-22T04:27:33;6.72;;;4.18;;
65471;SDS011;52068;50.710;14.492;2023-06-22T04:30:05;5.78;;;3.95;;
65471;SDS011;52068;50.710;14.492;2023-06-22T04:32:32;6.03;;;4.20;;
65471;SDS011;52068;50.710;14.492;2023-06-22T04:34:58;8.23;;;4.18;;
65471;SDS011;52068;50.710;14.492;2023-06-22T04:37:25;5.00;;;3.95;;
65471;SDS011;52068;50.710;14.492;2023-06-22T04:39:50;5.30;;;3.97;;
65471;SDS011;52068;50.710;14.492;2023-06-22T04:42:16;7.00;;;4.20;;
65471;SDS011;52068;50.710;14.492;2023-06-22T04:44:42;6.43;;;4.03;;
65471;SDS011;52068;50.710;14.492;2023-06-22T04:47:07;9.30;;;4.35;;
65471;SDS011;52068;50.710;14.492;2023-06-22T04:49:36;4.90;;;3.83;;
65471;SDS011;52068;50.710;14.492;2023-06-22T04:52:03;10.20;;;4.07;;
65471;SDS011;52068;50.710;14.492;2023-06-22T04:54:30;6.95;;;4.28;;
65471;SDS011;52068;50.710;14.492;2023-06-22T04:57:02;5.45;;;3.83;;
65471;SDS011;52068;50.710;14.492;2023-06-22T04:59:29;6.88;;;4.32;;
65471;SDS011;52068;50.710;14.492;2023-06-22T05:01:56;8.30;;;3.65;;
65471;SDS011;52068;50.710;14.492;2023-06-22T05:04:22;6.63;;;4.13;;
65471;SDS011;52068;50.710;14.492;2023-06-22T05:06:48;4.40;;;4.00;;
65471;SDS011;52068;50.710;14.492;2023-06-22T05:09:14;9.80;;;4.80;;
65471;SDS011;52068;50.710;14.492;2023-06-22T05:11:40;29.63;;;4.47;;
65471;SDS011;52068;50.710;14.492;2023-06-22T05:14:05;16.15;;;4.47;;
65471;SDS011;52068;50.710;14.492;2023-06-22T05:16:30;11.93;;;4.38;;
65471;SDS011;52068;50.710;14.492;2023-06-22T05:18:56;11.32;;;4.47;;
65471;SDS011;52068;50.710;14.492;2023-06-22T05:21:25;9.27;;;4.32;;
65471;SDS011;52068;50.710;14.492;2023-06-22T05:23:52;8.63;;;4.90;;
65471;SDS011;52068;50.710;14.492;2023-06-22T05:26:18;9.27;;;4.68;;
65471;SDS011;52068;50.710;14.492;2023-06-22T05:28:45;7.05;;;4.85;;
65471;SDS011;52068;50.710;14.492;2023-06-22T05:31:11;7.63;;;4.55;;
65471;SDS011;52068;50.710;14.492;2023-06-22T05:33:41;8.75;;;4.97;;
65471;SDS011;52068;50.710;14.492;2023-06-22T05:36:07;6.03;;;4.95;;
65471;SDS011;52068;50.710;14.492;2023-06-22T05:38:32;5.78;;;4.75;;
65471;SDS011;52068;50.710;14.492;2023-06-22T05:40:58;5.38;;;4.70;;
65471;SDS011;52068;50.710;14.492;2023-06-22T05:43:23;7.78;;;4.70;;
65471;SDS011;52068;50.710;14.492;2023-06-22T05:45:49;11.55;;;4.70;;
65471;SDS011;52068;50.710;14.492;2023-06-22T05:48:14;9.20;;;4.72;;
65471;SDS011;52068;50.710;14.492;2023-06-22T05:50:39;5.13;;;4.35;;
65471;SDS011;52068;50.710;14.492;2023-06-22T05:53:05;6.18;;;4.78;;
65471;SDS011;52068;50.710;14.492;2023-06-22T05:55:32;6.75;;;4.63;;
65471;SDS011;52068;50.710;14.492;2023-06-22T05:57:57;8.05;;;4.70;;
65471;SDS011;52068;50.710;14.492;2023-06-22T06:00:23;6.30;;;4.85;;
65471;SDS011;52068;50.710;14.492;2023-06-22T06:02:49;11.48;;;4.68;;
65471;SDS011;52068;50.710;14.492;2023-06-22T06:05:14;9.77;;;4.60;;
65471;SDS011;52068;50.710;14.492;2023-06-22T06:07:43;9.30;;;4.63;;
65471;SDS011;52068;50.710;14.492;2023-06-22T06:10:09;4.55;;;4.15;;
65471;SDS011;52068;50.710;14.492;2023-06-22T06:12:34;7.20;;;4.32;;
65471;SDS011;52068;50.710;14.492;2023-06-22T06:15:00;4.10;;;3.70;;
65471;SDS011;52068;50.710;14.492;2023-06-22T06:17:26;5.43;;;4.10;;
65471;SDS011;52068;50.710;14.492;2023-06-22T06:19:51;6.93;;;4.07;;
65471;SDS011;52068;50.710;14.492;2023-06-22T06:22:17;4.30;;;3.90;;
65471;SDS011;52068;50.710;14.492;2023-06-22T06:24:44;4.85;;;3.72;;
65471;SDS011;52068;50.710;14.492;2023-06-22T06:27:10;6.13;;;4.18;;
65471;SDS011;52068;50.710;14.492;2023-06-22T06:29:36;5.90;;;3.90;;
65471;SDS011;52068;50.710;14.492;2023-06-22T06:32:01;5.90;;;3.90;;
65471;SDS011;52068;50.710;14.492;2023-06-22T06:34:26;4.18;;;3.75;;
65471;SDS011;52068;50.710;14.492;2023-06-22T06:36:52;4.47;;;3.80;;
65471;SDS011;52068;50.710;14.492;2023-06-22T06:39:17;5.15;;;3.70;;
65471;SDS011;52068;50.710;14.492;2023-06-22T06:41:43;5.38;;;3.78;;
65471;SDS011;52068;50.710;14.492;2023-06-22T06:44:08;4.07;;;3.67;;
65471;SDS011;52068;50.710;14.492;2023-06-22T06:46:33;4.18;;;3.10;;
65471;SDS011;52068;50.710;14.492;2023-06-22T06:48:59;6.55;;;3.60;;
65471;SDS011;52068;50.710;14.492;2023-06-22T06:51:24;5.13;;;3.58;;
65471;SDS011;52068;50.710;14.492;2023-06-22T06:53:50;3.80;;;3.17;;
65471;SDS011;52068;50.710;14.492;2023-06-22T06:56:15;4.00;;;3.40;;
65471;SDS011;52068;50.710;14.492;2023-06-22T06:58:41;3.72;;;3.35;;
65471;SDS011;52068;50.710;14.492;2023-06-22T07:01:10;3.17;;;2.88;;
65471;SDS011;52068;50.710;14.492;2023-06-22T07:03:37;3.45;;;3.15;;
65471;SDS011;52068;50.710;14.492;2023-06-22T07:06:02;3.70;;;3.40;;
65471;SDS011;52068;50.710;14.492;2023-06-22T07:08:28;3.65;;;3.30;;
65471;SDS011;52068;50.710;14.492;2023-06-22T07:10:53;7.88;;;3.45;;
65471;SDS011;52068;50.710;14.492;2023-06-22T07:13:19;4.35;;;3.60;;
65471;SDS011;52068;50.710;14.492;2023-06-22T07:15:44;4.32;;;3.40;;
65471;SDS011;52068;50.710;14.492;2023-06-22T07:18:10;3.40;;;3.08;;
65471;SDS011;52068;50.710;14.492;2023-06-22T07:20:35;3.50;;;3.13;;
65471;SDS011;52068;50.710;14.492;2023-06-22T07:23:01;3.33;;;3.03;;
65471;SDS011;52068;50.710;14.492;2023-06-22T07:25:26;4.00;;;3.28;;
65471;SDS011;52068;50.710;14.492;2023-06-22T07:28:05;3.42;;;3.13;;
65471;SDS011;52068;50.710;14.492;2023-06-22T07:30:31;4.53;;;3.00;;
65471;SDS011;52068;50.710;14.492;2023-06-22T07:32:58;3.90;;;3.10;;
65471;SDS011;52068;50.710;14.492;2023-06-22T07:35:24;3.70;;;3.30;;
65471;SDS011;52068;50.710;14.492;2023-06-22T07:37:50;4.70;;;3.40;;
65471;SDS011;52068;50.710;14.492;2023-06-22T07:40:15;4.72;;;3.15;;
65471;SDS011;52068;50.710;14.492;2023-06-22T07:42:40;8.80;;;3.55;;
65471;SDS011;52068;50.710;14.492;2023-06-22T07:45:07;4.18;;;3.35;;
65471;SDS011;52068;50.710;14.492;2023-06-22T07:47:33;5.25;;;3.55;;
65471;SDS011;52068;50.710;14.492;2023-06-22T07:50:00;4.05;;;3.65;;
65471;SDS011;52068;50.710;14.492;2023-06-22T07:52:27;4.28;;;3.38;;
65471;SDS011;52068;50.710;14.492;2023-06-22T07:54:52;8.60;;;3.70;;
65471;SDS011;52068;50.710;14.492;2023-06-22T07:57:18;5.10;;;4.03;;
65471;SDS011;52068;50.710;14.492;2023-06-22T07:59:44;4.45;;;3.63;;
65471;SDS011;52068;50.710;14.492;2023-06-22T08:02:10;4.30;;;3.72;;
65471;SDS011;52068;50.710;14.492;2023-06-22T08:04:36;9.52;;;4.15;;
65471;SDS011;52068;50.710;14.492;2023-06-22T08:07:01;6.72;;;3.80;;
65471;SDS011;52068;50.710;14.492;2023-06-22T08:09:28;5.03;;;3.45;;
65471;SDS011;52068;50.710;14.492;2023-06-22T08:11:54;4.38;;;3.50;;
65471;SDS011;52068;50.710;14.492;2023-06-22T08:14:21;4.05;;;3.28;;
65471;SDS011;52068;50.710;14.492;2023-06-22T08:16:47;7.07;;;3.97;;
65471;SDS011;52068;50.710;14.492;2023-06-22T08:19:12;4.85;;;3.72;;
65471;SDS011;52068;50.710;14.492;2023-06-22T08:21:38;5.93;;;3.67;;
65471;SDS011;52068;50.710;14.492;2023-06-22T08:24:03;5.72;;;3.80;;
65471;SDS011;52068;50.710;14.492;2023-06-22T08:26:29;4.82;;;3.50;;
65471;SDS011;52068;50.710;14.492;2023-06-22T08:28:54;9.00;;;4.07;;
65471;SDS011;52068;50.710;14.492;2023-06-22T08:31:20;5.07;;;3.80;;
65471;SDS011;52068;50.710;14.492;2023-06-22T08:33:45;6.82;;;3.67;;
65471;SDS011;52068;50.710;14.492;2023-06-22T08:36:11;4.22;;;3.70;;
65471;SDS011;52068;50.710;14.492;2023-06-22T08:38:38;5.20;;;3.83;;
65471;SDS011;52068;50.710;14.492;2023-06-22T08:41:04;4.47;;;3.80;;
65471;SDS011;52068;50.710;14.492;2023-06-22T08:43:29;5.40;;;3.50;;
65471;SDS011;52068;50.710;14.492;2023-06-22T08:45:55;5.45;;;3.67;;
65471;SDS011;52068;50.710;14.492;2023-06-22T08:48:20;4.25;;;3.63;;
65471;SDS011;52068;50.710;14.492;2023-06-22T08:50:45;4.65;;;3.55;;
65471;SDS011;52068;50.710;14.492;2023-06-22T08:53:11;4.78;;;3.90;;
65471;SDS011;52068;50.710;14.492;2023-06-22T08:55:36;6.30;;;3.60;;
65471;SDS011;52068;50.710;14.492;2023-06-22T08:58:01;7.13;;;3.60;;
65471;SDS011;52068;50.710;14.492;2023-06-22T09:00:28;5.43;;;3.78;;
65471;SDS011;52068;50.710;14.492;2023-06-22T09:02:57;4.78;;;3.63;;
65471;SDS011;52068;50.710;14.492;2023-06-22T09:05:24;6.05;;;3.85;;
65471;SDS011;52068;50.710;14.492;2023-06-22T09:07:51;6.05;;;3.60;;
65471;SDS011;52068;50.710;14.492;2023-06-22T09:10:16;5.93;;;3.90;;
65471;SDS011;52068;50.710;14.492;2023-06-22T09:12:42;4.60;;;3.67;;
65471;SDS011;52068;50.710;14.492;2023-06-22T09:15:08;6.32;;;4.30;;
65471;SDS011;52068;50.710;14.492;2023-06-22T09:17:34;5.28;;;3.83;;
65471;SDS011;52068;50.710;14.492;2023-06-22T09:20:00;5.30;;;3.90;;
65471;SDS011;52068;50.710;14.492;2023-06-22T09:22:30;5.43;;;3.92;;
65471;SDS011;52068;50.710;14.492;2023-06-22T09:24:56;4.60;;;3.75;;
65471;SDS011;52068;50.710;14.492;2023-06-22T09:27:21;6.80;;;4.07;;
65471;SDS011;52068;50.710;14.492;2023-06-22T09:29:47;5.32;;;4.03;;
65471;SDS011;52068;50.710;14.492;2023-06-22T09:32:13;6.75;;;4.10;;
65471;SDS011;52068;50.710;14.492;2023-06-22T09:34:38;5.18;;;3.90;;
65471;SDS011;52068;50.710;14.492;2023-06-22T09:37:04;5.32;;;3.80;;
65471;SDS011;52068;50.710;14.492;2023-06-22T09:39:29;5.47;;;4.50;;
65471;SDS011;52068;50.710;14.492;2023-06-22T09:41:55;6.15;;;4.10;;
65471;SDS011;52068;50.710;14.492;2023-06-22T09:44:20;5.65;;;4.15;;
65471;SDS011;52068;50.710;14.492;2023-06-22T09:46:46;4.53;;;3.75;;
65471;SDS011;52068;50.710;14.492;2023-06-22T09:49:11;4.72;;;3.83;;
65471;SDS011;52068;50.710;14.492;2023-06-22T09:51:36;6.13;;;3.92;;
65471;SDS011;52068;50.710;14.492;2023-06-22T09:54:02;5.32;;;3.83;;
65471;SDS011;52068;50.710;14.492;2023-06-22T09:56:27;5.05;;;4.05;;
65471;SDS011;52068;50.710;14.492;2023-06-22T09:58:54;7.63;;;3.88;;
65471;SDS011;52068;50.710;14.492;2023-06-22T10:01:19;6.60;;;3.83;;
65471;SDS011;52068;50.710;14.492;2023-06-22T10:03:46;6.82;;;4.38;;
65471;SDS011;52068;50.710;14.492;2023-06-22T10:06:11;4.47;;;3.55;;
65471;SDS011;52068;50.710;14.492;2023-06-22T10:08:37;4.72;;;4.05;;
65471;SDS011;52068;50.710;14.492;2023-06-22T10:11:03;5.15;;;4.10;;
65471;SDS011;52068;50.710;14.492;2023-06-22T10:13:28;5.45;;;3.92;;
65471;SDS011;52068;50.710;14.492;2023-06-22T10:15:54;5.70;;;4.65;;
65471;SDS011;52068;50.710;14.492;2023-06-22T10:18:19;7.03;;;4.10;;
65471;SDS011;52068;50.710;14.492;2023-06-22T10:20:47;5.05;;;3.85;;
65471;SDS011;52068;50.710;14.492;2023-06-22T10:23:13;5.90;;;4.07;;
65471;SDS011;52068;50.710;14.492;2023-06-22T10:25:38;4.40;;;3.97;;
65471;SDS011;52068;50.710;14.492;2023-06-22T10:28:04;6.55;;;4.25;;
65471;SDS011;52068;50.710;14.492;2023-06-22T10:30:29;25.75;;;4.35;;
65471;SDS011;52068;50.710;14.492;2023-06-22T10:32:54;8.50;;;4.63;;
65471;SDS011;52068;50.710;14.492;2023-06-22T10:35:20;5.93;;;4.18;;
65471;SDS011;52068;50.710;14.492;2023-06-22T10:37:45;6.22;;;4.25;;
65471;SDS011;52068;50.710;14.492;2023-06-22T10:40:14;12.52;;;4.18;;
65471;SDS011;52068;50.710;14.492;2023-06-22T10:42:41;5.60;;;4.30;;
65471;SDS011;52068;50.710;14.492;2023-06-22T10:45:07;8.43;;;4.25;;
65471;SDS011;52068;50.710;14.492;2023-06-22T10:47:33;5.70;;;3.92;;
65471;SDS011;52068;50.710;14.492;2023-06-22T10:49:59;5.78;;;4.30;;
65471;SDS011;52068;50.710;14.492;2023-06-22T10:52:24;6.43;;;3.92;;
65471;SDS011;52068;50.710;14.492;2023-06-22T10:54:50;5.85;;;4.20;;
65471;SDS011;52068;50.710;14.492;2023-06-22T10:57:15;4.70;;;3.97;;
65471;SDS011;52068;50.710;14.492;2023-06-22T10:59:41;5.05;;;4.45;;
65471;SDS011;52068;50.710;14.492;2023-06-22T11:02:06;4.72;;;4.10;;
65471;SDS011;52068;50.710;14.492;2023-06-22T11:04:31;10.27;;;4.38;;
65471;SDS011;52068;50.710;14.492;2023-06-22T11:06:57;6.55;;;4.20;;
65471;SDS011;52068;50.710;14.492;2023-06-22T11:09:22;5.03;;;4.20;;
65471;SDS011;52068;50.710;14.492;2023-06-22T11:11:48;7.65;;;4.55;;
65471;SDS011;52068;50.710;14.492;2023-06-22T11:14:15;5.47;;;4.68;;
65471;SDS011;52068;50.710;14.492;2023-06-22T11:16:41;6.18;;;4.63;;
65471;SDS011;52068;50.710;14.492;2023-06-22T11:19:06;6.30;;;4.07;;
65471;SDS011;52068;50.710;14.492;2023-06-22T11:21:32;5.47;;;3.90;;
65471;SDS011;52068;50.710;14.492;2023-06-22T11:23:58;6.22;;;4.40;;
65471;SDS011;52068;50.710;14.492;2023-06-22T11:26:26;6.95;;;4.65;;
65471;SDS011;52068;50.710;14.492;2023-06-22T11:28:54;6.88;;;4.10;;
65471;SDS011;52068;50.710;14.492;2023-06-22T11:31:20;5.75;;;4.38;;
65471;SDS011;52068;50.710;14.492;2023-06-22T11:33:46;5.63;;;4.15;;
65471;SDS011;52068;50.710;14.492;2023-06-22T11:36:12;5.78;;;4.40;;
65471;SDS011;52068;50.710;14.492;2023-06-22T11:38:38;5.25;;;4.15;;
65471;SDS011;52068;50.710;14.492;2023-06-22T11:41:07;8.38;;;4.13;;
65471;SDS011;52068;50.710;14.492;2023-06-22T11:43:33;6.88;;;3.90;;
65471;SDS011;52068;50.710;14.492;2023-06-22T11:45:59;7.05;;;4.15;;
65471;SDS011;52068;50.710;14.492;2023-06-22T11:48:26;5.75;;;4.38;;
65471;SDS011;52068;50.710;14.492;2023-06-22T11:50:51;6.88;;;3.97;;
65471;SDS011;52068;50.710;14.492;2023-06-22T11:53:16;5.15;;;4.45;;
65471;SDS011;52068;50.710;14.492;2023-06-22T11:55:42;6.00;;;4.18;;
65471;SDS011;52068;50.710;14.492;2023-06-22T11:58:08;6.05;;;4.35;;
65471;SDS011;52068;50.710;14.492;2023-06-22T12:00:34;4.80;;;4.20;;
65471;SDS011;52068;50.710;14.492;2023-06-22T12:02:59;4.60;;;4.15;;
65471;SDS011;52068;50.710;14.492;2023-06-22T12:05:25;5.88;;;4.70;;
65471;SDS011;52068;50.710;14.492;2023-06-22T12:07:55;5.50;;;3.90;;
65471;SDS011;52068;50.710;14.492;2023-06-22T12:10:21;5.50;;;4.13;;
65471;SDS011;52068;50.710;14.492;2023-06-22T12:12:47;4.57;;;3.90;;
65471;SDS011;52068;50.710;14.492;2023-06-22T12:15:12;5.15;;;4.13;;
65471;SDS011;52068;50.710;14.492;2023-06-22T12:17:38;4.18;;;3.78;;
65471;SDS011;52068;50.710;14.492;2023-06-22T12:20:04;9.27;;;4.38;;
65471;SDS011;52068;50.710;14.492;2023-06-22T12:22:30;5.05;;;4.35;;
65471;SDS011;52068;50.710;14.492;2023-06-22T12:24:57;6.10;;;4.25;;
65471;SDS011;52068;50.710;14.492;2023-06-22T12:27:22;4.88;;;3.90;;
65471;SDS011;52068;50.710;14.492;2023-06-22T12:29:47;4.32;;;3.92;;
65471;SDS011;52068;50.710;14.492;2023-06-22T12:32:13;5.53;;;3.85;;
65471;SDS011;52068;50.710;14.492;2023-06-22T12:34:39;4.43;;;3.80;;
65471;SDS011;52068;50.710;14.492;2023-06-22T12:37:06;4.70;;;4.30;;
65471;SDS011;52068;50.710;14.492;2023-06-22T12:39:32;6.95;;;4.38;;
65471;SDS011;52068;50.710;14.492;2023-06-22T12:41:57;6.05;;;4.00;;
65471;SDS011;52068;50.710;14.492;2023-06-22T12:44:23;6.35;;;4.13;;
65471;SDS011;52068;50.710;14.492;2023-06-22T12:46:48;5.20;;;4.25;;
65471;SDS011;52068;50.710;14.492;2023-06-22T12:49:14;4.28;;;3.88;;
65471;SDS011;52068;50.710;14.492;2023-06-22T12:51:40;7.75;;;4.15;;
65471;SDS011;52068;50.710;14.492;2023-06-22T12:54:08;4.50;;;4.10;;
65471;SDS011;52068;50.710;14.492;2023-06-22T12:56:34;5.75;;;3.90;;
65471;SDS011;52068;50.710;14.492;2023-06-22T12:59:00;5.72;;;3.88;;
65471;SDS011;52068;50.710;14.492;2023-06-22T13:01:30;6.45;;;3.95;;
65471;SDS011;52068;50.710;14.492;2023-06-22T13:03:56;4.55;;;4.15;;
65471;SDS011;52068;50.710;14.492;2023-06-22T13:06:22;7.63;;;3.90;;
65471;SDS011;52068;50.710;14.492;2023-06-22T13:08:48;6.90;;;4.32;;
65471;SDS011;52068;50.710;14.492;2023-06-22T13:11:13;6.53;;;4.30;;
65471;SDS011;52068;50.710;14.492;2023-06-22T13:13:39;5.53;;;4.00;;
65471;SDS011;52068;50.710;14.492;2023-06-22T13:16:05;4.65;;;4.13;;
65471;SDS011;52068;50.710;14.492;2023-06-22T13:18:30;6.00;;;3.90;;
65471;SDS011;52068;50.710;14.492;2023-06-22T13:20:55;4.70;;;3.72;;
65471;SDS011;52068;50.710;14.492;2023-06-22T13:23:23;4.22;;;3.80;;
65471;SDS011;52068;50.710;14.492;2023-06-22T13:25:48;5.68;;;3.40;;
65471;SDS011;52068;50.710;14.492;2023-06-22T13:28:14;4.13;;;3.70;;
65471;SDS011;52068;50.710;14.492;2023-06-22T13:30:41;8.73;;;3.95;;
65471;SDS011;52068;50.710;14.492;2023-06-22T13:33:08;4.13;;;3.70;;
65471;SDS011;52068;50.710;14.492;2023-06-22T13:35:33;6.18;;;3.88;;
65471;SDS011;52068;50.710;14.492;2023-06-22T13:38:00;8.27;;;3.28;;
65471;SDS011;52068;50.710;14.492;2023-06-22T13:40:25;7.25;;;3.95;;
65471;SDS011;52068;50.710;14.492;2023-06-22T13:42:51;7.10;;;3.88;;
65471;SDS011;52068;50.710;14.492;2023-06-22T13:45:16;6.18;;;4.40;;
65471;SDS011;52068;50.710;14.492;2023-06-22T13:47:43;4.28;;;3.85;;
65471;SDS011;52068;50.710;14.492;2023-06-22T13:50:09;4.68;;;3.67;;
65471;SDS011;52068;50.710;14.492;2023-06-22T13:52:35;5.07;;;4.07;;
65471;SDS011;52068;50.710;14.492;2023-06-22T13:55:01;6.55;;;3.78;;
65471;SDS011;52068;50.710;14.492;2023-06-22T13:57:26;5.10;;;3.25;;
65471;SDS011;52068;50.710;14.492;2023-06-22T13:59:52;3.83;;;3.42;;
65471;SDS011;52068;50.710;14.492;2023-06-22T14:02:18;3.72;;;3.42;;
65471;SDS011;52068;50.710;14.492;2023-06-22T14:04:43;3.90;;;3.50;;
65471;SDS011;52068;50.710;14.492;2023-06-22T14:07:08;6.32;;;3.45;;
65471;SDS011;52068;50.710;14.492;2023-06-22T14:09:34;4.97;;;3.95;;
65471;SDS011;52068;50.710;14.492;2023-06-22T14:12:02;4.38;;;3.80;;
65471;SDS011;52068;50.710;14.492;2023-06-22T14:14:32;4.72;;;3.78;;
65471;SDS011;52068;50.710;14.492;2023-06-22T14:16:58;4.72;;;3.65;;
65471;SDS011;52068;50.710;14.492;2023-06-22T14:19:24;5.57;;;3.65;;
65471;SDS011;52068;50.710;14.492;2023-06-22T14:21:49;6.80;;;3.67;;
65471;SDS011;52068;50.710;14.492;2023-06-22T14:24:15;4.00;;;3.60;;
65471;SDS011;52068;50.710;14.492;2023-06-22T14:26:40;4.75;;;3.17;;
65471;SDS011;52068;50.710;14.492;2023-06-22T14:29:05;6.18;;;3.58;;
65471;SDS011;52068;50.710;14.492;2023-06-22T14:31:31;4.70;;;3.78;;
65471;SDS011;52068;50.710;14.492;2023-06-22T14:33:57;6.97;;;3.53;;